Aviation Digital Data Service (ADDS)

Output produced by METARs form (2051 UTC 20 August 2019)
found at http://www.aviationweather.gov/metar/data/
 
Forecast for: WAMM (MENADO/SAM RATUL, ID)
Text: TAF WAMM 201700Z 2018/2124 19010KT 9000 FEW022
Forecast period: 1800 UTC 20 August 2019 to 0000 UTC 22 August 2019
Forecast type: FROM: standard forecast or significant change
Winds: from the S (190 degrees) at 12 MPH (10 knots; 5.1 m/s)
Visibility: 6 miles (9 km)
Ceiling: at least 12,000 feet AGL
Clouds: few clouds at 2200 feet AGL
Weather: no significant weather forecast for this period